Time;durP1;ratioP1;P1;durP2;ratioP2;P2;SDS_P1;SDS_P2;PMS_P1;PMS_P2;Temp;Humidity;BMP_temperature;BMP_pressure;BME280_temperature;BME280_humidity;BME280_pressure;Samples;Min_cycle;Max_cycle;Signal;HPM_P1;HPM_P2
2023/01/21 00:01:22;;;;;;;3.50;2.90;;;3.80;99.90;;;;;;5036934;28;20193;-66
2023/01/21 00:03:51;;;;;;;3.53;2.85;;;3.80;99.90;;;;;;5025756;28;20225;-66
2023/01/21 00:06:20;;;;;;;3.38;2.65;;;3.80;99.90;;;;;;5026895;28;20231;-65
2023/01/21 00:08:48;;;;;;;3.38;3.08;;;3.80;99.90;;;;;;5024764;28;20232;-67
2023/01/21 00:11:17;;;;;;;3.47;3.17;;;3.80;99.90;;;;;;5042331;28;20236;-66
2023/01/21 00:13:46;;;;;;;3.95;3.40;;;3.80;99.90;;;;;;5024359;28;20244;-66
2023/01/21 00:16:15;;;;;;;5.10;3.42;;;3.80;99.90;;;;;;5022950;28;20197;-66
2023/01/21 00:18:46;;;;;;;3.20;2.90;;;3.80;99.90;;;;;;5041930;28;20224;-67
2023/01/21 00:21:16;;;;;;;5.35;3.35;;;3.80;99.90;;;;;;5030914;28;20267;-65
2023/01/21 00:23:45;;;;;;;4.30;3.90;;;3.80;99.90;;;;;;5034796;28;20223;-66
2023/01/21 00:26:14;;;;;;;2.63;2.42;;;3.80;99.90;;;;;;5034600;28;20196;-67
2023/01/21 00:28:43;;;;;;;3.20;2.55;;;3.80;99.90;;;;;;5038135;28;20586;-66
2023/01/21 00:31:12;;;;;;;3.28;2.47;;;3.80;99.90;;;;;;5038497;28;20209;-67
2023/01/21 00:33:42;;;;;;;3.50;3.03;;;3.80;99.90;;;;;;5034434;28;20311;-64
2023/01/21 00:36:12;;;;;;;6.10;3.72;;;3.80;99.90;;;;;;5042952;28;20192;-66
2023/01/21 00:38:42;;;;;;;5.90;4.10;;;3.80;99.90;;;;;;5038132;28;20224;-66
2023/01/21 00:41:13;;;;;;;3.70;3.00;;;3.80;99.90;;;;;;5040571;28;20188;-67
2023/01/21 00:43:42;;;;;;;4.05;3.53;;;3.80;99.90;;;;;;5037469;28;20228;-66
2023/01/21 00:46:11;;;;;;;2.88;2.17;;;3.80;99.90;;;;;;5041412;28;20597;-66
2023/01/21 00:48:40;;;;;;;3.95;2.83;;;3.80;99.90;;;;;;5035883;28;20227;-66
2023/01/21 00:51:08;;;;;;;4.70;3.20;;;3.80;99.90;;;;;;5045649;28;20508;-64
2023/01/21 00:53:40;;;;;;;3.50;2.88;;;3.80;99.90;;;;;;5040081;28;20227;-66
2023/01/21 00:56:11;;;;;;;4.28;3.35;;;3.80;99.90;;;;;;5028350;28;20307;-65
2023/01/21 00:58:42;;;;;;;5.80;3.80;;;3.80;99.90;;;;;;5034075;28;20225;-65
2023/01/21 01:01:12;;;;;;;4.82;2.70;;;3.80;99.90;;;;;;5038739;28;20204;-66
2023/01/21 01:03:41;;;;;;;4.32;3.20;;;3.80;99.90;;;;;;5029330;28;20767;-66
2023/01/21 01:06:12;;;;;;;4.50;3.15;;;3.80;99.90;;;;;;5038593;28;20277;-65
2023/01/21 01:08:40;;;;;;;4.88;2.90;;;3.80;99.90;;;;;;5038055;28;20248;-66
2023/01/21 01:11:12;;;;;;;4.13;3.22;;;3.80;99.90;;;;;;5043890;28;20215;-65
2023/01/21 01:13:40;;;;;;;6.10;3.33;;;3.80;99.90;;;;;;5039118;28;20704;-64
2023/01/21 01:16:10;;;;;;;3.17;2.88;;;3.80;99.90;;;;;;5032130;28;20456;-66
2023/01/21 01:18:39;;;;;;;3.85;3.08;;;3.80;99.90;;;;;;5028955;28;20307;-64
2023/01/21 01:21:12;;;;;;;4.85;3.58;;;3.80;99.90;;;;;;5033066;28;20203;-65
2023/01/21 01:23:40;;;;;;;7.88;3.50;;;3.80;99.90;;;;;;5022042;28;20231;-65
2023/01/21 01:26:13;;;;;;;3.72;3.00;;;3.80;99.90;;;;;;5030750;28;20204;-65
2023/01/21 01:28:41;;;;;;;3.42;3.13;;;3.80;99.90;;;;;;5024548;28;20226;-65
2023/01/21 01:31:13;;;;;;;3.85;2.92;;;3.80;99.90;;;;;;5022468;28;20231;-67
2023/01/21 01:33:42;;;;;;;4.10;3.40;;;3.80;99.90;;;;;;5016080;28;20748;-66
2023/01/21 01:36:13;;;;;;;3.30;2.90;;;3.70;99.90;;;;;;5037689;28;20287;-65
2023/01/21 01:38:41;;;;;;;6.03;3.53;;;3.80;99.90;;;;;;5044422;28;20273;-66
2023/01/21 01:41:15;;;;;;;3.35;2.95;;;3.70;99.90;;;;;;5033284;28;20212;-65
2023/01/21 01:43:53;;;;;;;4.40;3.70;;;3.70;99.90;;;;;;5034240;28;20639;-66
2023/01/21 01:46:23;;;;;;;4.88;3.10;;;3.80;99.90;;;;;;5057146;28;20192;-66
2023/01/21 01:48:57;;;;;;;3.75;3.15;;;3.70;99.90;;;;;;5040244;28;20780;-64
2023/01/21 01:51:31;;;;;;;4.30;3.42;;;3.70;99.90;;;;;;5040132;28;20208;-65
2023/01/21 01:54:00;;;;;;;5.38;3.28;;;3.70;99.90;;;;;;5036096;28;20829;-66
2023/01/21 01:56:30;;;;;;;4.47;3.40;;;3.70;99.90;;;;;;5040005;28;20235;-65
2023/01/21 01:58:59;;;;;;;4.80;3.45;;;3.70;99.90;;;;;;5042330;28;20230;-65
2023/01/21 02:01:27;;;;;;;4.05;3.65;;;3.70;99.90;;;;;;5041155;28;20181;-66
2023/01/21 02:03:59;;;;;;;3.70;3.05;;;3.70;99.90;;;;;;5028042;28;20251;-65
2023/01/21 02:06:28;;;;;;;3.78;2.92;;;3.70;99.90;;;;;;5040709;28;20193;-65
2023/01/21 02:08:57;;;;;;;5.25;3.55;;;3.70;99.90;;;;;;5063493;28;20683;-65
2023/01/21 02:11:25;;;;;;;4.32;3.40;;;3.80;99.90;;;;;;5040012;28;20212;-65
2023/01/21 02:13:58;;;;;;;4.03;3.63;;;3.70;99.90;;;;;;5037790;28;20301;-66
2023/01/21 02:17:14;;;;;;;4.95;3.20;;;3.70;99.90;;;;;;5037693;28;20225;-65
2023/01/21 02:20:22;;;;;;;6.25;3.28;;;3.70;99.90;;;;;;5026661;28;20220;-65
2023/01/21 02:23:01;;;;;;;4.93;3.75;;;3.70;99.90;;;;;;5030634;28;20255;-65
2023/01/21 02:26:15;;;;;;;3.85;3.45;;;3.70;99.90;;;;;;5043173;28;20187;-65
2023/01/21 02:29:19;;;;;;;5.32;3.95;;;3.70;99.90;;;;;;5026276;28;20315;-65
2023/01/21 02:32:27;;;;;;;5.35;3.35;;;3.70;99.90;;;;;;5030622;28;20694;-65
2023/01/21 02:35:01;;;;;;;4.47;3.90;;;3.70;99.90;;;;;;5024752;28;20602;-65
2023/01/21 02:37:36;;;;;;;4.68;3.10;;;3.70;99.90;;;;;;5058278;28;20196;-65
2023/01/21 02:40:13;;;;;;;5.35;4.00;;;3.70;99.90;;;;;;5035571;28;20592;-65
2023/01/21 02:42:46;;;;;;;3.95;3.40;;;3.70;99.90;;;;;;5041456;28;20315;-64
2023/01/21 02:45:22;;;;;;;4.15;3.25;;;3.70;99.90;;;;;;5036142;28;20202;-65
2023/01/21 02:48:04;;;;;;;4.72;3.10;;;3.70;99.90;;;;;;5019902;28;20210;-65
2023/01/21 02:50:38;;;;;;;6.25;3.80;;;3.70;99.90;;;;;;5069183;28;20327;-65
2023/01/21 02:53:07;;;;;;;4.13;3.72;;;3.70;99.90;;;;;;5035412;28;20644;-65
2023/01/21 02:55:37;;;;;;;6.93;5.03;;;3.70;99.90;;;;;;5054276;28;20196;-66
2023/01/21 02:58:10;;;;;;;4.68;3.90;;;3.70;99.90;;;;;;5029603;28;20705;-66
2023/01/21 03:00:56;;;;;;;4.55;3.38;;;3.70;99.90;;;;;;5053363;28;20224;-66
2023/01/21 03:03:36;;;;;;;4.38;2.97;;;3.70;99.90;;;;;;5063054;28;20224;-65
2023/01/21 03:06:35;;;;;;;7.15;3.80;;;3.70;99.90;;;;;;5050725;28;20221;-65
2023/01/21 03:09:13;;;;;;;4.47;4.07;;;3.70;99.90;;;;;;5020858;28;20319;-66
2023/01/21 03:11:48;;;;;;;4.10;3.60;;;3.70;99.90;;;;;;5043415;28;20312;-66
2023/01/21 03:17:17;;;;;;;4.47;3.58;;;3.70;99.90;;;;;;5049705;28;20192;-66
2023/01/21 03:19:52;;;;;;;6.45;3.90;;;3.70;99.90;;;;;;5033100;28;20595;-65
2023/01/21 03:22:26;;;;;;;5.10;3.40;;;3.70;99.90;;;;;;5047303;28;20251;-65
2023/01/21 03:24:57;;;;;;;5.35;3.95;;;3.70;99.90;;;;;;5033286;28;20200;-65
2023/01/21 03:27:28;;;;;;;5.22;3.90;;;3.70;99.90;;;;;;5048327;28;20722;-65
2023/01/21 03:29:59;;;;;;;3.50;3.20;;;3.70;99.90;;;;;;5046800;28;20751;-65
2023/01/21 03:32:31;;;;;;;6.18;3.83;;;3.60;99.90;;;;;;5035132;28;20738;-65
2023/01/21 03:35:05;;;;;;;5.25;3.85;;;3.70;99.90;;;;;;5040719;28;20239;-67
2023/01/21 03:37:41;;;;;;;5.03;3.45;;;3.70;99.90;;;;;;5046077;28;20196;-66
2023/01/21 03:40:17;;;;;;;4.25;3.10;;;3.70;99.90;;;;;;5042928;28;20643;-66
2023/01/21 03:42:49;;;;;;;4.72;3.53;;;3.60;99.90;;;;;;5026101;28;20224;-65
2023/01/21 03:45:22;;;;;;;5.05;3.97;;;3.60;99.90;;;;;;5059830;28;20563;-65
2023/01/21 03:47:57;;;;;;;5.40;4.10;;;3.60;99.90;;;;;;5038910;28;20192;-66
2023/01/21 03:50:29;;;;;;;4.55;3.75;;;3.60;99.90;;;;;;5033304;28;20283;-65
2023/01/21 03:52:59;;;;;;;4.60;3.60;;;3.70;99.90;;;;;;5029028;28;20259;-66
2023/01/21 03:55:27;;;;;;;5.03;3.58;;;3.60;99.90;;;;;;5025040;28;20184;-65
2023/01/21 03:57:56;;;;;;;4.18;3.67;;;3.60;99.90;;;;;;5037485;28;20308;-65
2023/01/21 04:00:24;;;;;;;6.75;4.00;;;3.60;99.90;;;;;;5026610;28;20183;-66
2023/01/21 04:02:53;;;;;;;5.97;4.28;;;3.60;99.90;;;;;;5036821;28;20244;-66
2023/01/21 04:05:22;;;;;;;4.97;3.65;;;3.60;99.90;;;;;;5027101;28;20637;-65
2023/01/21 04:07:50;;;;;;;5.40;4.00;;;3.60;99.90;;;;;;5045380;28;20200;-64
2023/01/21 04:10:20;;;;;;;4.45;2.90;;;3.60;99.90;;;;;;5040799;28;20195;-65
2023/01/21 04:12:48;;;;;;;9.35;4.00;;;3.60;99.90;;;;;;5026875;28;20776;-65
2023/01/21 04:15:17;;;;;;;4.93;3.42;;;3.60;99.90;;;;;;5041823;28;20199;-64
2023/01/21 04:17:45;;;;;;;4.78;3.88;;;3.60;99.90;;;;;;5037888;28;20249;-65
2023/01/21 04:20:14;;;;;;;3.83;3.40;;;3.60;99.90;;;;;;5047491;28;20713;-66
2023/01/21 04:22:45;;;;;;;6.25;4.30;;;3.60;99.90;;;;;;5034854;28;20223;-63
2023/01/21 04:25:14;;;;;;;5.13;3.60;;;3.60;99.90;;;;;;5034681;28;20260;-65
2023/01/21 04:27:44;;;;;;;5.40;4.18;;;3.60;99.90;;;;;;5026739;28;20415;-66
2023/01/21 04:30:12;;;;;;;4.00;3.60;;;3.60;99.90;;;;;;5039373;28;20257;-65
2023/01/21 04:32:41;;;;;;;3.95;3.55;;;3.60;99.90;;;;;;5059606;28;20243;-65
2023/01/21 04:35:10;;;;;;;5.72;3.70;;;3.60;99.90;;;;;;5035850;28;20277;-65
2023/01/21 04:37:38;;;;;;;4.75;3.20;;;3.60;99.90;;;;;;5041811;28;20224;-65
2023/01/21 04:40:07;;;;;;;6.05;3.83;;;3.60;99.90;;;;;;5030627;28;20204;-65
2023/01/21 04:42:36;;;;;;;5.65;4.05;;;3.60;99.90;;;;;;5029463;28;20212;-65
2023/01/21 04:45:07;;;;;;;4.95;4.13;;;3.60;99.90;;;;;;5040600;28;20196;-65
2023/01/21 04:47:36;;;;;;;5.20;3.90;;;3.60;99.90;;;;;;5043769;28;20224;-65
2023/01/21 04:50:05;;;;;;;3.40;3.10;;;3.60;99.90;;;;;;5036902;28;20188;-65
2023/01/21 04:52:33;;;;;;;6.10;4.20;;;3.60;99.90;;;;;;5031405;28;20806;-65
2023/01/21 04:55:02;;;;;;;5.20;4.00;;;3.60;99.90;;;;;;5021155;28;20199;-66
2023/01/21 04:57:30;;;;;;;4.05;3.65;;;3.60;99.90;;;;;;5030437;28;20573;-65
2023/01/21 04:59:59;;;;;;;4.75;3.47;;;3.60;99.90;;;;;;5024667;28;21007;-66
2023/01/21 05:02:28;;;;;;;4.85;3.42;;;3.60;99.90;;;;;;5021894;28;20787;-65
2023/01/21 05:04:57;;;;;;;5.97;3.90;;;3.60;99.90;;;;;;5022799;28;20282;-65
2023/01/21 05:07:25;;;;;;;7.53;3.60;;;3.60;99.90;;;;;;5024810;28;20192;-64
2023/01/21 05:09:54;;;;;;;4.22;3.58;;;3.60;99.90;;;;;;5018401;28;20208;-65
2023/01/21 05:12:22;;;;;;;5.00;3.90;;;3.60;99.90;;;;;;5029754;28;20303;-65
2023/01/21 05:14:53;;;;;;;7.45;4.15;;;3.60;99.90;;;;;;5054571;28;20705;-66
2023/01/21 05:17:22;;;;;;;8.52;3.90;;;3.60;99.90;;;;;;5031328;28;20287;-65
2023/01/21 05:19:52;;;;;;;6.25;4.28;;;3.60;99.90;;;;;;5022831;28;20675;-65
2023/01/21 05:22:21;;;;;;;4.85;3.47;;;3.60;99.90;;;;;;5025856;28;20219;-64
2023/01/21 05:24:49;;;;;;;5.53;4.00;;;3.60;99.90;;;;;;5026435;28;20210;-66
2023/01/21 05:27:18;;;;;;;4.47;3.83;;;3.60;99.90;;;;;;5037910;28;20753;-66
2023/01/21 05:29:47;;;;;;;5.15;3.92;;;3.60;99.90;;;;;;5043008;28;20207;-65
2023/01/21 05:32:15;;;;;;;4.32;2.90;;;3.60;99.90;;;;;;5029252;28;20542;-65
2023/01/21 05:34:43;;;;;;;4.00;3.60;;;3.60;99.90;;;;;;5037470;28;20244;-65
2023/01/21 05:37:13;;;;;;;4.20;3.10;;;3.60;99.90;;;;;;5045299;28;20257;-65
2023/01/21 05:39:42;;;;;;;5.55;4.00;;;3.50;99.90;;;;;;5052247;28;20583;-65
2023/01/21 05:42:10;;;;;;;4.40;3.92;;;3.60;99.90;;;;;;5056523;28;20673;-74
2023/01/21 05:44:39;;;;;;;5.72;3.80;;;3.50;99.90;;;;;;5048222;28;20299;-74
2023/01/21 05:47:07;;;;;;;4.13;3.60;;;3.50;99.90;;;;;;5025113;28;20188;-74
2023/01/21 05:49:36;;;;;;;4.90;3.20;;;3.50;99.90;;;;;;5051301;28;20566;-74
2023/01/21 05:52:05;;;;;;;6.47;4.20;;;3.50;99.90;;;;;;5059913;28;21004;-74
2023/01/21 05:54:35;;;;;;;5.65;3.80;;;3.50;99.90;;;;;;5044212;28;20212;-74
2023/01/21 05:57:03;;;;;;;7.05;4.15;;;3.50;99.90;;;;;;5028683;28;20245;-74
2023/01/21 05:59:32;;;;;;;4.97;3.72;;;3.50;99.90;;;;;;5023385;28;20201;-64
2023/01/21 06:02:00;;;;;;;5.30;4.40;;;3.50;99.90;;;;;;5033872;28;20681;-65
2023/01/21 06:04:29;;;;;;;4.13;3.63;;;3.50;99.90;;;;;;5018145;28;20312;-65
2023/01/21 06:06:58;;;;;;;4.65;4.10;;;3.50;99.90;;;;;;5048170;28;20282;-65
2023/01/21 06:09:26;;;;;;;4.25;3.80;;;3.50;99.90;;;;;;5030262;28;20312;-65
2023/01/21 06:11:56;;;;;;;4.38;3.90;;;3.50;99.90;;;;;;5021055;28;20332;-65
2023/01/21 06:14:24;;;;;;;7.15;4.68;;;3.50;99.90;;;;;;5032879;28;20309;-65
2023/01/21 06:16:52;;;;;;;5.15;4.35;;;3.50;99.90;;;;;;5033099;28;20201;-65
2023/01/21 06:19:21;;;;;;;4.10;3.70;;;3.50;99.90;;;;;;5034880;28;20585;-65
2023/01/21 06:21:51;;;;;;;5.82;3.92;;;3.50;99.90;;;;;;5043477;28;20576;-66
2023/01/21 06:24:20;;;;;;;4.40;3.65;;;3.50;99.90;;;;;;5041904;28;20216;-65
2023/01/21 06:26:48;;;;;;;4.53;3.60;;;3.50;99.90;;;;;;5051872;28;20224;-66
2023/01/21 06:29:18;;;;;;;6.07;4.10;;;3.50;99.90;;;;;;5032242;28;20274;-67
2023/01/21 06:31:46;;;;;;;4.38;3.80;;;3.50;99.90;;;;;;5022100;28;20714;-66
2023/01/21 06:34:15;;;;;;;4.57;3.63;;;3.50;99.90;;;;;;5035764;28;20334;-66
2023/01/21 06:36:43;;;;;;;4.22;3.75;;;3.50;99.90;;;;;;5039802;28;20228;-65
2023/01/21 06:39:12;;;;;;;6.15;3.65;;;3.50;99.90;;;;;;5033400;28;20221;-66
2023/01/21 06:41:40;;;;;;;6.03;3.70;;;3.50;99.90;;;;;;5026996;28;20266;-65
2023/01/21 06:44:09;;;;;;;6.30;4.70;;;3.50;99.90;;;;;;5018476;28;20220;-65
2023/01/21 06:46:38;;;;;;;5.07;3.78;;;3.50;99.90;;;;;;5020574;28;20280;-66
2023/01/21 06:49:13;;;;;;;6.85;4.05;;;3.50;99.90;;;;;;5028297;28;20295;-64
2023/01/21 06:51:41;;;;;;;4.80;4.25;;;3.50;99.90;;;;;;5044953;28;20348;-66
2023/01/21 06:54:10;;;;;;;4.90;3.10;;;3.50;99.90;;;;;;5025668;28;20824;-66
2023/01/21 06:56:39;;;;;;;6.65;4.40;;;3.50;99.90;;;;;;5026129;28;20207;-66
2023/01/21 06:59:08;;;;;;;5.07;4.07;;;3.50;99.90;;;;;;5045441;28;20275;-65
2023/01/21 07:01:37;;;;;;;5.45;4.22;;;3.50;99.90;;;;;;5026473;28;20199;-65
2023/01/21 07:04:06;;;;;;;6.93;4.20;;;3.50;99.90;;;;;;5059406;28;20248;-65
2023/01/21 07:06:34;;;;;;;5.35;3.65;;;3.50;99.90;;;;;;5044439;28;20267;-65
2023/01/21 07:09:04;;;;;;;5.05;3.95;;;3.50;99.90;;;;;;5038586;28;20659;-66
2023/01/21 07:11:33;;;;;;;7.13;4.70;;;3.40;99.90;;;;;;5049799;28;21326;-65
2023/01/21 07:14:01;;;;;;;4.82;4.30;;;3.40;99.90;;;;;;5051675;28;20243;-65
2023/01/21 07:16:29;;;;;;;4.90;3.60;;;3.40;99.90;;;;;;5038302;28;20197;-65
2023/01/21 07:18:59;;;;;;;5.13;3.92;;;3.50;99.90;;;;;;5025483;28;20234;-66
2023/01/21 07:21:28;;;;;;;4.85;4.05;;;3.40;99.90;;;;;;5028095;28;20223;-66
2023/01/21 07:23:56;;;;;;;7.90;4.25;;;3.40;99.90;;;;;;5038686;28;20220;-64
2023/01/21 07:26:24;;;;;;;4.72;3.20;;;3.40;99.90;;;;;;5032773;28;20188;-65
2023/01/21 07:28:53;;;;;;;6.57;4.10;;;3.40;99.90;;;;;;5057495;28;20215;-65
2023/01/21 07:31:21;;;;;;;5.22;3.20;;;3.40;99.90;;;;;;5025613;28;20800;-65
2023/01/21 07:33:50;;;;;;;5.00;3.85;;;3.40;99.90;;;;;;5034802;28;20233;-64
2023/01/21 07:36:19;;;;;;;5.95;4.50;;;3.40;99.90;;;;;;5028387;28;20215;-66
2023/01/21 07:38:48;;;;;;;5.63;4.90;;;3.40;99.90;;;;;;5024363;28;20295;-66
2023/01/21 07:41:16;;;;;;;5.20;4.32;;;3.40;99.90;;;;;;5043037;28;20683;-65
2023/01/21 07:43:46;;;;;;;5.75;3.92;;;3.40;99.90;;;;;;5041414;28;20227;-66
2023/01/21 07:46:16;;;;;;;5.43;4.30;;;3.40;99.90;;;;;;5023425;28;20682;-65
2023/01/21 07:48:47;;;;;;;4.38;3.75;;;3.40;99.90;;;;;;5042079;28;20282;-67
2023/01/21 07:51:15;;;;;;;5.05;3.80;;;3.40;99.90;;;;;;5027031;28;20220;-63
2023/01/21 07:53:45;;;;;;;6.57;4.05;;;3.40;99.90;;;;;;5043435;28;20231;-65
2023/01/21 07:56:13;;;;;;;5.55;3.70;;;3.40;99.90;;;;;;5023079;28;20219;-66
2023/01/21 07:58:42;;;;;;;5.85;4.35;;;3.40;99.90;;;;;;5024459;28;20216;-64
2023/01/21 08:01:10;;;;;;;4.35;3.78;;;3.40;99.90;;;;;;5024598;28;20446;-65
2023/01/21 08:03:39;;;;;;;5.55;4.45;;;3.40;99.90;;;;;;5024119;28;20647;-65
2023/01/21 08:06:07;;;;;;;5.80;4.10;;;3.40;99.90;;;;;;5037733;28;20197;-65
2023/01/21 08:08:36;;;;;;;5.35;3.95;;;3.40;99.90;;;;;;5025293;28;20702;-65
2023/01/21 08:11:06;;;;;;;5.15;4.07;;;3.40;99.90;;;;;;5026111;28;20197;-65
2023/01/21 08:13:34;;;;;;;4.05;3.28;;;3.40;99.90;;;;;;5024966;28;20254;-64
2023/01/21 08:16:03;;;;;;;5.97;3.63;;;3.40;99.90;;;;;;5024985;28;20444;-64
2023/01/21 08:18:31;;;;;;;5.00;3.80;;;3.40;99.90;;;;;;5047292;28;20287;-65
2023/01/21 08:21:00;;;;;;;4.97;4.30;;;3.40;99.90;;;;;;5025705;28;20243;-65
2023/01/21 08:23:28;;;;;;;5.00;4.05;;;3.40;99.90;;;;;;5026766;28;20357;-65
2023/01/21 08:25:56;;;;;;;6.15;4.10;;;3.40;99.90;;;;;;5041977;28;20672;-64
2023/01/21 08:28:26;;;;;;;6.15;4.10;;;3.40;99.90;;;;;;5025183;28;20585;-66
2023/01/21 08:30:54;;;;;;;5.95;4.05;;;3.40;99.90;;;;;;5038957;28;20192;-65
2023/01/21 08:33:22;;;;;;;4.80;3.40;;;3.40;99.90;;;;;;5024076;28;20223;-66
2023/01/21 08:35:51;;;;;;;4.65;4.10;;;3.40;99.90;;;;;;5022604;28;20692;-64
2023/01/21 08:38:20;;;;;;;4.97;4.15;;;3.40;99.90;;;;;;5047548;28;20687;-65
2023/01/21 08:40:48;;;;;;;4.82;4.25;;;3.40;99.90;;;;;;5025318;28;20292;-66
2023/01/21 08:43:16;;;;;;;5.55;4.18;;;3.40;99.90;;;;;;5007234;28;20321;-63
2023/01/21 08:45:46;;;;;;;7.53;4.72;;;3.40;99.90;;;;;;5023882;28;20188;-66
2023/01/21 08:48:14;;;;;;;6.55;4.38;;;3.40;99.90;;;;;;5044601;28;20539;-66
2023/01/21 08:50:43;;;;;;;5.63;4.18;;;3.40;99.90;;;;;;5024630;28;20207;-65
2023/01/21 08:53:11;;;;;;;6.70;4.53;;;3.40;99.90;;;;;;5022109;28;20275;-66
2023/01/21 08:55:40;;;;;;;6.32;4.05;;;3.40;99.90;;;;;;5025406;28;20205;-66
2023/01/21 08:58:08;;;;;;;6.53;3.95;;;3.40;99.90;;;;;;5018603;28;20300;-64
2023/01/21 09:00:36;;;;;;;6.65;5.38;;;3.40;99.90;;;;;;5025494;28;20959;-66
2023/01/21 09:03:06;;;;;;;4.93;4.38;;;3.40;99.90;;;;;;5024113;28;20263;-65
2023/01/21 09:05:35;;;;;;;5.75;3.83;;;3.40;99.90;;;;;;5056750;28;20189;-64
2023/01/21 09:08:03;;;;;;;8.32;3.97;;;3.40;99.90;;;;;;5039433;28;20193;-67
2023/01/21 09:13:23;;;;;;;5.70;4.00;;;3.40;99.90;;;;;;5024734;28;20213;-67
2023/01/21 09:15:51;;;;;;;8.27;4.00;;;3.40;99.90;;;;;;5027466;28;20987;-65
2023/01/21 09:18:21;;;;;;;5.55;4.53;;;3.40;99.90;;;;;;5038326;28;20315;-65
2023/01/21 09:20:49;;;;;;;5.78;3.53;;;3.40;99.90;;;;;;5027520;28;20258;-66
2023/01/21 09:23:24;;;;;;;4.50;4.10;;;3.40;99.90;;;;;;5020513;28;20223;-66
2023/01/21 09:25:53;;;;;;;7.82;3.88;;;3.40;99.90;;;;;;5055255;28;20188;-67
2023/01/21 09:28:23;;;;;;;3.97;3.15;;;3.40;99.90;;;;;;5040988;28;20212;-64
2023/01/21 09:30:56;;;;;;;4.43;3.60;;;3.40;99.90;;;;;;5041825;28;21024;-65
2023/01/21 09:33:27;;;;;;;5.15;3.72;;;3.40;99.90;;;;;;5018913;28;20760;-66
2023/01/21 09:35:55;;;;;;;5.03;4.25;;;3.40;99.90;;;;;;5025435;28;20598;-65
2023/01/21 09:38:24;;;;;;;5.05;4.15;;;3.40;99.90;;;;;;5023801;28;20308;-66
2023/01/21 09:40:54;;;;;;;5.72;4.25;;;3.40;99.90;;;;;;5023063;28;20197;-67
2023/01/21 09:43:27;;;;;;;6.30;4.90;;;3.40;99.90;;;;;;5024107;28;20219;-65
2023/01/21 09:45:58;;;;;;;6.43;4.20;;;3.40;99.90;;;;;;5021708;28;20668;-64
2023/01/21 09:48:36;;;;;;;5.20;3.65;;;3.40;99.90;;;;;;5035432;28;20735;-66
2023/01/21 09:51:14;;;;;;;5.40;4.55;;;3.40;99.90;;;;;;5056849;28;20190;-66
2023/01/21 09:53:49;;;;;;;5.80;4.15;;;3.40;99.90;;;;;;5029293;28;20255;-65
2023/01/21 09:56:24;;;;;;;4.75;3.90;;;3.40;99.90;;;;;;5032328;28;20286;-66
2023/01/21 09:59:00;;;;;;;5.50;4.28;;;3.40;99.90;;;;;;5029618;28;20252;-65
2023/01/21 10:01:33;;;;;;;5.93;4.70;;;3.40;99.90;;;;;;5037831;28;20287;-64
2023/01/21 10:04:33;;;;;;;5.18;4.40;;;3.40;99.90;;;;;;5024052;28;20231;-64
2023/01/21 10:07:05;;;;;;;7.85;5.30;;;3.40;99.90;;;;;;5026393;28;20282;-66
2023/01/21 10:09:45;;;;;;;4.10;3.55;;;3.40;99.90;;;;;;5018596;28;20233;-66
2023/01/21 10:12:36;;;;;;;6.82;4.53;;;3.40;99.90;;;;;;5026463;28;20220;-64
2023/01/21 10:15:29;;;;;;;3.70;3.30;;;3.40;99.90;;;;;;5005724;28;20200;-66
2023/01/21 10:18:02;;;;;;;5.40;4.47;;;3.40;99.90;;;;;;5023384;28;20248;-65
2023/01/21 10:20:35;;;;;;;4.80;4.30;;;3.40;99.90;;;;;;5026517;28;20257;-66
2023/01/21 10:23:11;;;;;;;7.13;4.53;;;3.40;99.90;;;;;;5020655;28;20228;-64
2023/01/21 10:25:40;;;;;;;6.65;4.57;;;3.40;99.90;;;;;;5056167;28;20227;-66
2023/01/21 10:28:16;;;;;;;5.68;4.72;;;3.40;99.90;;;;;;5022054;28;20254;-66
2023/01/21 10:30:49;;;;;;;7.35;5.50;;;3.40;99.90;;;;;;5028639;28;20248;-65
2023/01/21 10:33:20;;;;;;;5.60;5.10;;;3.40;99.90;;;;;;5040148;28;20220;-66
2023/01/21 10:36:15;;;;;;;7.20;5.15;;;3.40;99.90;;;;;;5045431;28;20894;-66
2023/01/21 10:38:50;;;;;;;7.05;5.70;;;3.40;99.90;;;;;;5026801;28;20343;-65
2023/01/21 10:41:33;;;;;;;6.20;4.20;;;3.40;99.90;;;;;;5041812;28;20218;-64
2023/01/21 10:44:09;;;;;;;6.70;5.30;;;3.40;99.90;;;;;;5059246;28;20258;-64
2023/01/21 10:46:48;;;;;;;6.30;4.75;;;3.40;99.90;;;;;;5024843;28;20618;-66
2023/01/21 10:49:32;;;;;;;6.75;5.38;;;3.40;99.90;;;;;;5041578;28;20681;-67
2023/01/21 10:52:07;;;;;;;5.10;4.00;;;3.40;99.90;;;;;;5024912;28;20197;-66
2023/01/21 10:54:47;;;;;;;5.68;4.70;;;3.40;99.90;;;;;;5025848;28;20290;-67
2023/01/21 10:57:29;;;;;;;7.43;5.20;;;3.40;99.90;;;;;;5027909;28;20243;-66
2023/01/21 11:00:00;;;;;;;6.63;4.88;;;3.40;99.90;;;;;;5029378;28;20296;-66
2023/01/21 11:02:31;;;;;;;5.93;4.68;;;3.40;99.90;;;;;;5018888;28;20281;-67
2023/01/21 11:05:03;;;;;;;6.30;4.28;;;3.40;99.90;;;;;;5026111;28;20203;-64
2023/01/21 11:07:37;;;;;;;5.50;4.95;;;3.40;99.90;;;;;;5025214;28;20201;-66
2023/01/21 11:10:07;;;;;;;13.73;5.32;;;3.40;99.90;;;;;;5017789;28;20283;-67
2023/01/21 11:12:36;;;;;;;6.05;4.82;;;3.40;99.90;;;;;;5021597;28;20278;-66
2023/01/21 11:15:13;;;;;;;6.95;4.93;;;3.30;99.90;;;;;;5023278;28;20238;-66
2023/01/21 11:17:45;;;;;;;6.78;5.13;;;3.40;99.90;;;;;;5028671;28;20294;-66
2023/01/21 11:20:23;;;;;;;10.48;4.78;;;3.40;99.90;;;;;;5026106;28;20201;-66
2023/01/21 11:22:54;;;;;;;6.88;5.10;;;3.40;99.90;;;;;;5056146;28;20310;-66
2023/01/21 11:25:35;;;;;;;6.18;5.57;;;3.40;99.90;;;;;;5024904;28;20247;-66
2023/01/21 11:28:04;;;;;;;6.80;5.10;;;3.40;99.90;;;;;;5056578;28;20549;-66
2023/01/21 11:30:37;;;;;;;7.70;5.60;;;3.40;99.90;;;;;;5043451;28;20208;-67
2023/01/21 11:33:25;;;;;;;7.80;5.95;;;3.40;99.90;;;;;;5055403;28;20216;-66
2023/01/21 11:35:55;;;;;;;7.45;5.10;;;3.40;99.90;;;;;;5041729;28;20622;-66
2023/01/21 11:38:31;;;;;;;6.15;4.78;;;3.40;99.90;;;;;;5021136;28;20248;-66
2023/01/21 11:41:02;;;;;;;6.15;4.55;;;3.40;99.90;;;;;;5040514;28;20201;-66
2023/01/21 11:43:36;;;;;;;7.43;4.90;;;3.40;99.90;;;;;;5052999;28;20228;-66
2023/01/21 11:46:26;;;;;;;5.93;4.32;;;3.40;99.90;;;;;;5038050;28;20308;-65
2023/01/21 11:48:57;;;;;;;7.25;4.15;;;3.40;99.90;;;;;;5025382;28;20217;-65
2023/01/21 11:51:25;;;;;;;8.35;4.47;;;3.40;99.90;;;;;;5028379;28;20564;-66
2023/01/21 11:54:12;;;;;;;5.75;4.43;;;3.40;99.90;;;;;;5025442;28;20230;-67
2023/01/21 11:56:42;;;;;;;8.02;5.13;;;3.40;99.90;;;;;;5025905;28;20223;-67
2023/01/21 11:59:23;;;;;;;6.97;4.97;;;3.40;99.90;;;;;;5020139;28;20247;-65
2023/01/21 12:01:54;;;;;;;8.88;5.60;;;3.40;99.90;;;;;;5038082;28;20709;-68
2023/01/21 12:04:22;;;;;;;6.13;4.95;;;3.40;99.90;;;;;;5009630;28;20240;-66
2023/01/21 12:06:56;;;;;;;8.82;6.40;;;3.40;99.90;;;;;;5024590;28;20264;-67
2023/01/21 12:09:27;;;;;;;15.18;9.75;;;3.40;99.90;;;;;;5024299;28;20216;-67
2023/01/21 12:12:23;;;;;;;22.58;14.50;;;3.40;99.90;;;;;;5026150;28;20205;-67
2023/01/21 12:14:57;;;;;;;24.35;15.45;;;3.30;99.90;;;;;;5040024;28;20301;-67
2023/01/21 12:17:37;;;;;;;28.73;17.27;;;3.20;99.90;;;;;;5044557;28;20334;-66
2023/01/21 12:20:23;;;;;;;23.65;15.60;;;3.20;99.90;;;;;;5037174;28;20219;-67
2023/01/21 12:23:10;;;;;;;19.40;14.13;;;3.20;99.90;;;;;;5050452;28;20242;-66
2023/01/21 12:25:46;;;;;;;19.73;14.23;;;3.20;99.90;;;;;;5052388;28;20196;-68
2023/01/21 12:28:45;;;;;;;20.02;12.77;;;3.20;99.90;;;;;;5042033;28;20195;-67
2023/01/21 12:31:23;;;;;;;16.70;12.45;;;3.20;99.90;;;;;;5031594;28;20209;-68
2023/01/21 12:33:59;;;;;;;20.65;13.25;;;3.20;99.90;;;;;;5021527;28;20701;-67
2023/01/21 12:36:32;;;;;;;17.17;11.75;;;3.20;99.90;;;;;;5025404;28;20283;-66
2023/01/21 12:39:20;;;;;;;21.90;13.77;;;3.20;99.90;;;;;;5024076;28;20473;-65
2023/01/21 12:42:00;;;;;;;21.25;12.77;;;3.20;99.90;;;;;;5053566;28;20283;-68
2023/01/21 12:44:35;;;;;;;21.55;13.80;;;3.20;99.90;;;;;;5022456;28;20694;-67
2023/01/21 12:47:11;;;;;;;16.77;11.80;;;3.20;99.90;;;;;;5024024;28;20253;-67
2023/01/21 12:49:52;;;;;;;18.00;12.90;;;3.20;99.90;;;;;;5025287;28;20252;-67
2023/01/21 12:52:26;;;;;;;20.15;13.68;;;3.20;99.90;;;;;;5023683;28;20204;-68
2023/01/21 12:55:04;;;;;;;17.40;12.75;;;3.20;99.90;;;;;;5039423;28;20217;-67
2023/01/21 12:57:41;;;;;;;20.13;12.23;;;3.30;99.90;;;;;;5049871;28;20277;-65
2023/01/21 13:00:18;;;;;;;15.75;11.98;;;3.30;99.90;;;;;;5042804;28;20228;-68
2023/01/21 13:02:55;;;;;;;18.30;12.82;;;3.30;99.90;;;;;;5052995;28;20706;-67
2023/01/21 13:05:30;;;;;;;17.15;12.10;;;3.30;99.90;;;;;;5019099;28;20192;-68
2023/01/21 13:08:05;;;;;;;20.42;13.27;;;3.30;99.90;;;;;;5022810;28;20226;-68
2023/01/21 13:10:37;;;;;;;18.85;11.65;;;3.30;99.90;;;;;;5034804;28;20207;-67
2023/01/21 13:13:16;;;;;;;18.90;12.25;;;3.30;99.90;;;;;;5022180;28;20224;-68
2023/01/21 13:15:48;;;;;;;16.70;12.20;;;3.30;99.90;;;;;;5021788;28;20199;-67
2023/01/21 13:18:21;;;;;;;16.10;11.40;;;3.30;99.90;;;;;;5041830;28;20298;-68
2023/01/21 13:20:54;;;;;;;15.70;10.38;;;3.30;99.90;;;;;;5023172;28;20327;-66
2023/01/21 13:23:32;;;;;;;16.50;11.85;;;3.30;99.90;;;;;;5026257;28;20225;-67
2023/01/21 13:26:06;;;;;;;16.50;11.80;;;3.30;99.90;;;;;;5037184;28;20201;-66
2023/01/21 13:28:42;;;;;;;15.05;10.73;;;3.30;99.90;;;;;;5025700;28;20239;-67